sensor_id;sensor_type;location;lat;lon;timestamp;temperature;humidity
54178;DHT22;40085;53.004;6.770;2023-10-19T00:01:22;8.20;99.90
54178;DHT22;40085;53.004;6.770;2023-10-19T00:03:52;8.20;99.90
54178;DHT22;40085;53.004;6.770;2023-10-19T00:06:21;8.20;99.90
54178;DHT22;40085;53.004;6.770;2023-10-19T00:08:48;8.20;99.90
54178;DHT22;40085;53.004;6.770;2023-10-19T00:11:16;8.20;99.90
54178;DHT22;40085;53.004;6.770;2023-10-19T00:13:49;8.20;99.90
54178;DHT22;40085;53.004;6.770;2023-10-19T00:16:24;8.20;99.90
54178;DHT22;40085;53.004;6.770;2023-10-19T00:18:56;8.10;99.90
54178;DHT22;40085;53.004;6.770;2023-10-19T00:21:25;8.10;99.90
54178;DHT22;40085;53.004;6.770;2023-10-19T00:23:55;9.10;99.90
54178;DHT22;40085;53.004;6.770;2023-10-19T00:26:30;8.10;99.90
54178;DHT22;40085;53.004;6.770;2023-10-19T00:28:56;8.00;99.90
54178;DHT22;40085;53.004;6.770;2023-10-19T00:31:23;8.10;99.90
54178;DHT22;40085;53.004;6.770;2023-10-19T00:33:49;8.00;99.90
54178;DHT22;40085;53.004;6.770;2023-10-19T00:36:20;8.10;99.90
54178;DHT22;40085;53.004;6.770;2023-10-19T00:38:46;8.10;99.90
54178;DHT22;40085;53.004;6.770;2023-10-19T00:41:17;8.10;99.90
54178;DHT22;40085;53.004;6.770;2023-10-19T00:43:56;8.10;99.90
54178;DHT22;40085;53.004;6.770;2023-10-19T00:46:30;8.10;99.90
54178;DHT22;40085;53.004;6.770;2023-10-19T00:49:01;8.10;99.90
54178;DHT22;40085;53.004;6.770;2023-10-19T00:51:48;8.10;99.90
54178;DHT22;40085;53.004;6.770;2023-10-19T00:54:30;8.10;99.90
54178;DHT22;40085;53.004;6.770;2023-10-19T00:57:07;8.10;99.90
54178;DHT22;40085;53.004;6.770;2023-10-19T00:59:40;8.10;99.90
54178;DHT22;40085;53.004;6.770;2023-10-19T01:02:20;8.00;99.90
54178;DHT22;40085;53.004;6.770;2023-10-19T01:04:55;8.10;99.90
54178;DHT22;40085;53.004;6.770;2023-10-19T01:07:29;8.20;99.90
54178;DHT22;40085;53.004;6.770;2023-10-19T01:10:01;8.10;99.90
54178;DHT22;40085;53.004;6.770;2023-10-19T01:12:31;8.10;99.90
54178;DHT22;40085;53.004;6.770;2023-10-19T01:17:32;8.10;99.90
54178;DHT22;40085;53.004;6.770;2023-10-19T01:20:07;8.10;99.90
54178;DHT22;40085;53.004;6.770;2023-10-19T01:23:00;8.10;99.90
54178;DHT22;40085;53.004;6.770;2023-10-19T01:25:57;8.10;99.90
54178;DHT22;40085;53.004;6.770;2023-10-19T01:28:25;8.10;99.90
54178;DHT22;40085;53.004;6.770;2023-10-19T01:30:54;8.10;99.90
54178;DHT22;40085;53.004;6.770;2023-10-19T01:33:23;8.10;99.90
54178;DHT22;40085;53.004;6.770;2023-10-19T01:35:49;8.10;99.90
54178;DHT22;40085;53.004;6.770;2023-10-19T01:38:33;8.10;99.90
54178;DHT22;40085;53.004;6.770;2023-10-19T01:41:04;8.10;99.90
54178;DHT22;40085;53.004;6.770;2023-10-19T01:43:46;8.10;99.90
54178;DHT22;40085;53.004;6.770;2023-10-19T01:46:16;8.10;99.90
54178;DHT22;40085;53.004;6.770;2023-10-19T01:49:02;8.10;99.90
54178;DHT22;40085;53.004;6.770;2023-10-19T01:51:30;8.00;99.90
54178;DHT22;40085;53.004;6.770;2023-10-19T01:53:58;8.10;99.90
54178;DHT22;40085;53.004;6.770;2023-10-19T01:56:26;8.10;99.90
54178;DHT22;40085;53.004;6.770;2023-10-19T01:58:52;8.10;99.90
54178;DHT22;40085;53.004;6.770;2023-10-19T02:01:19;8.10;99.90
54178;DHT22;40085;53.004;6.770;2023-10-19T02:03:52;8.30;99.90
54178;DHT22;40085;53.004;6.770;2023-10-19T02:06:24;8.10;99.90
54178;DHT22;40085;53.004;6.770;2023-10-19T02:08:57;8.10;99.90
54178;DHT22;40085;53.004;6.770;2023-10-19T02:11:27;8.10;99.90
54178;DHT22;40085;53.004;6.770;2023-10-19T02:13:55;8.10;99.90
54178;DHT22;40085;53.004;6.770;2023-10-19T02:16:25;8.10;99.90
54178;DHT22;40085;53.004;6.770;2023-10-19T02:18:51;8.10;99.90
54178;DHT22;40085;53.004;6.770;2023-10-19T02:21:18;8.10;99.90
54178;DHT22;40085;53.004;6.770;2023-10-19T02:23:48;8.10;99.90
54178;DHT22;40085;53.004;6.770;2023-10-19T02:26:17;8.10;99.90
54178;DHT22;40085;53.004;6.770;2023-10-19T02:28:49;8.10;99.90
54178;DHT22;40085;53.004;6.770;2023-10-19T02:31:18;8.10;99.90
54178;DHT22;40085;53.004;6.770;2023-10-19T02:33:46;8.10;99.90
54178;DHT22;40085;53.004;6.770;2023-10-19T02:36:14;8.10;99.90
54178;DHT22;40085;53.004;6.770;2023-10-19T02:38:42;8.10;99.90
54178;DHT22;40085;53.004;6.770;2023-10-19T02:41:10;8.20;99.90
54178;DHT22;40085;53.004;6.770;2023-10-19T02:43:39;8.20;99.90
54178;DHT22;40085;53.004;6.770;2023-10-19T02:46:06;8.20;99.90
54178;DHT22;40085;53.004;6.770;2023-10-19T02:48:32;8.10;99.90
54178;DHT22;40085;53.004;6.770;2023-10-19T02:50:58;8.10;99.90
54178;DHT22;40085;53.004;6.770;2023-10-19T02:53:31;8.10;99.90
54178;DHT22;40085;53.004;6.770;2023-10-19T02:55:58;8.20;99.90
54178;DHT22;40085;53.004;6.770;2023-10-19T02:58:27;8.20;99.90
54178;DHT22;40085;53.004;6.770;2023-10-19T03:00:53;8.30;99.90
54178;DHT22;40085;53.004;6.770;2023-10-19T03:03:20;8.10;99.90
54178;DHT22;40085;53.004;6.770;2023-10-19T03:05:46;8.30;99.90
54178;DHT22;40085;53.004;6.770;2023-10-19T03:08:12;8.20;99.90
54178;DHT22;40085;53.004;6.770;2023-10-19T03:10:41;8.20;99.90
54178;DHT22;40085;53.004;6.770;2023-10-19T03:13:09;8.20;99.90
54178;DHT22;40085;53.004;6.770;2023-10-19T03:15:35;8.20;99.90
54178;DHT22;40085;53.004;6.770;2023-10-19T03:18:04;8.20;99.90
54178;DHT22;40085;53.004;6.770;2023-10-19T03:20:30;8.20;99.90
54178;DHT22;40085;53.004;6.770;2023-10-19T03:22:59;8.10;99.90
54178;DHT22;40085;53.004;6.770;2023-10-19T03:25:27;8.20;99.90
54178;DHT22;40085;53.004;6.770;2023-10-19T03:28:11;8.20;99.90
54178;DHT22;40085;53.004;6.770;2023-10-19T03:30:37;8.20;99.90
54178;DHT22;40085;53.004;6.770;2023-10-19T03:33:08;8.20;99.90
54178;DHT22;40085;53.004;6.770;2023-10-19T03:35:38;8.20;99.90
54178;DHT22;40085;53.004;6.770;2023-10-19T03:38:07;8.20;99.90
54178;DHT22;40085;53.004;6.770;2023-10-19T03:40:40;8.30;99.90
54178;DHT22;40085;53.004;6.770;2023-10-19T03:43:05;8.30;99.90
54178;DHT22;40085;53.004;6.770;2023-10-19T03:45:42;8.30;99.90
54178;DHT22;40085;53.004;6.770;2023-10-19T03:48:12;8.20;99.90
54178;DHT22;40085;53.004;6.770;2023-10-19T03:50:38;8.30;99.90
54178;DHT22;40085;53.004;6.770;2023-10-19T03:53:04;8.30;99.90
54178;DHT22;40085;53.004;6.770;2023-10-19T03:55:30;8.30;99.90
54178;DHT22;40085;53.004;6.770;2023-10-19T03:57:56;8.30;99.90
54178;DHT22;40085;53.004;6.770;2023-10-19T04:00:22;8.30;99.90
54178;DHT22;40085;53.004;6.770;2023-10-19T04:02:53;8.30;99.90
54178;DHT22;40085;53.004;6.770;2023-10-19T04:05:19;8.30;99.90
54178;DHT22;40085;53.004;6.770;2023-10-19T04:07:53;8.30;99.90
54178;DHT22;40085;53.004;6.770;2023-10-19T04:10:23;8.30;99.90
54178;DHT22;40085;53.004;6.770;2023-10-19T04:13:00;8.40;99.90
54178;DHT22;40085;53.004;6.770;2023-10-19T04:15:27;8.40;99.90
54178;DHT22;40085;53.004;6.770;2023-10-19T04:17:54;8.40;99.90
54178;DHT22;40085;53.004;6.770;2023-10-19T04:20:21;8.40;99.90
54178;DHT22;40085;53.004;6.770;2023-10-19T04:22:49;8.40;99.90
54178;DHT22;40085;53.004;6.770;2023-10-19T04:25:16;8.30;99.90
54178;DHT22;40085;53.004;6.770;2023-10-19T04:27:44;8.40;99.90
54178;DHT22;40085;53.004;6.770;2023-10-19T04:30:12;8.40;99.90
54178;DHT22;40085;53.004;6.770;2023-10-19T04:32:48;8.40;99.90
54178;DHT22;40085;53.004;6.770;2023-10-19T04:35:15;8.40;99.90
54178;DHT22;40085;53.004;6.770;2023-10-19T04:37:53;8.40;99.90
54178;DHT22;40085;53.004;6.770;2023-10-19T04:40:19;8.40;99.90
54178;DHT22;40085;53.004;6.770;2023-10-19T04:42:46;8.40;99.90
54178;DHT22;40085;53.004;6.770;2023-10-19T04:45:12;8.40;99.90
54178;DHT22;40085;53.004;6.770;2023-10-19T04:47:38;8.40;99.90
54178;DHT22;40085;53.004;6.770;2023-10-19T04:50:05;8.40;99.90
54178;DHT22;40085;53.004;6.770;2023-10-19T04:52:31;8.40;99.90
54178;DHT22;40085;53.004;6.770;2023-10-19T04:54:58;8.40;99.90
54178;DHT22;40085;53.004;6.770;2023-10-19T04:57:24;8.40;99.90
54178;DHT22;40085;53.004;6.770;2023-10-19T04:59:51;8.70;99.90
54178;DHT22;40085;53.004;6.770;2023-10-19T05:02:17;8.40;99.90
54178;DHT22;40085;53.004;6.770;2023-10-19T05:04:43;8.50;99.90
54178;DHT22;40085;53.004;6.770;2023-10-19T05:07:09;8.50;99.90
54178;DHT22;40085;53.004;6.770;2023-10-19T05:09:38;8.50;99.90
54178;DHT22;40085;53.004;6.770;2023-10-19T05:12:06;8.50;99.90
54178;DHT22;40085;53.004;6.770;2023-10-19T05:14:35;8.50;99.90
54178;DHT22;40085;53.004;6.770;2023-10-19T05:17:02;8.50;99.90
54178;DHT22;40085;53.004;6.770;2023-10-19T05:19:31;8.50;99.90
54178;DHT22;40085;53.004;6.770;2023-10-19T05:21:56;8.50;99.90
54178;DHT22;40085;53.004;6.770;2023-10-19T05:24:22;8.50;99.90
54178;DHT22;40085;53.004;6.770;2023-10-19T05:26:48;8.50;99.90
54178;DHT22;40085;53.004;6.770;2023-10-19T05:29:13;8.50;99.90
54178;DHT22;40085;53.004;6.770;2023-10-19T05:31:39;8.50;99.90
54178;DHT22;40085;53.004;6.770;2023-10-19T05:34:05;8.50;99.90
54178;DHT22;40085;53.004;6.770;2023-10-19T05:36:30;8.50;99.90
54178;DHT22;40085;53.004;6.770;2023-10-19T05:38:57;8.50;99.90
54178;DHT22;40085;53.004;6.770;2023-10-19T05:41:23;8.50;99.90
54178;DHT22;40085;53.004;6.770;2023-10-19T05:43:49;8.50;99.90
54178;DHT22;40085;53.004;6.770;2023-10-19T05:46:15;8.50;99.90
54178;DHT22;40085;53.004;6.770;2023-10-19T05:48:44;8.50;99.90
54178;DHT22;40085;53.004;6.770;2023-10-19T05:51:11;8.50;99.90
54178;DHT22;40085;53.004;6.770;2023-10-19T05:53:36;8.50;99.90
54178;DHT22;40085;53.004;6.770;2023-10-19T05:56:03;8.50;99.90
54178;DHT22;40085;53.004;6.770;2023-10-19T05:58:28;8.50;99.90
54178;DHT22;40085;53.004;6.770;2023-10-19T06:00:58;8.50;99.90
54178;DHT22;40085;53.004;6.770;2023-10-19T06:03:24;8.50;99.90
54178;DHT22;40085;53.004;6.770;2023-10-19T06:05:49;8.50;99.90
54178;DHT22;40085;53.004;6.770;2023-10-19T06:08:15;8.50;99.90
54178;DHT22;40085;53.004;6.770;2023-10-19T06:10:41;8.50;99.90
54178;DHT22;40085;53.004;6.770;2023-10-19T06:13:08;8.50;99.90
54178;DHT22;40085;53.004;6.770;2023-10-19T06:15:36;9.00;99.90
54178;DHT22;40085;53.004;6.770;2023-10-19T06:18:02;8.60;99.90
54178;DHT22;40085;53.004;6.770;2023-10-19T06:20:29;8.50;99.90
54178;DHT22;40085;53.004;6.770;2023-10-19T06:22:56;8.60;99.90
54178;DHT22;40085;53.004;6.770;2023-10-19T06:25:24;8.60;99.90
54178;DHT22;40085;53.004;6.770;2023-10-19T06:27:51;8.60;99.90
54178;DHT22;40085;53.004;6.770;2023-10-19T06:30:18;8.50;99.90
54178;DHT22;40085;53.004;6.770;2023-10-19T06:32:52;8.60;99.90
54178;DHT22;40085;53.004;6.770;2023-10-19T06:35:19;8.60;99.90
54178;DHT22;40085;53.004;6.770;2023-10-19T06:37:45;8.80;99.90
54178;DHT22;40085;53.004;6.770;2023-10-19T06:40:11;8.90;99.90
54178;DHT22;40085;53.004;6.770;2023-10-19T06:42:41;8.60;99.90
54178;DHT22;40085;53.004;6.770;2023-10-19T06:45:07;8.40;99.90
54178;DHT22;40085;53.004;6.770;2023-10-19T06:47:33;8.60;99.90
54178;DHT22;40085;53.004;6.770;2023-10-19T06:50:06;8.60;99.90
54178;DHT22;40085;53.004;6.770;2023-10-19T06:52:36;8.60;99.90
54178;DHT22;40085;53.004;6.770;2023-10-19T06:55:03;8.60;99.90
54178;DHT22;40085;53.004;6.770;2023-10-19T06:57:30;8.60;99.90
54178;DHT22;40085;53.004;6.770;2023-10-19T06:59:56;8.60;99.90
54178;DHT22;40085;53.004;6.770;2023-10-19T07:02:22;8.60;99.90
54178;DHT22;40085;53.004;6.770;2023-10-19T07:04:47;8.60;99.90
54178;DHT22;40085;53.004;6.770;2023-10-19T07:07:13;8.60;99.90
54178;DHT22;40085;53.004;6.770;2023-10-19T07:09:41;8.60;99.90
54178;DHT22;40085;53.004;6.770;2023-10-19T07:12:07;8.70;99.90
54178;DHT22;40085;53.004;6.770;2023-10-19T07:14:33;8.70;99.90
54178;DHT22;40085;53.004;6.770;2023-10-19T07:16:59;8.70;99.90
54178;DHT22;40085;53.004;6.770;2023-10-19T07:19:25;8.70;99.90
54178;DHT22;40085;53.004;6.770;2023-10-19T07:21:51;8.70;99.90
54178;DHT22;40085;53.004;6.770;2023-10-19T07:24:23;8.80;99.90
54178;DHT22;40085;53.004;6.770;2023-10-19T07:26:50;8.70;99.90
54178;DHT22;40085;53.004;6.770;2023-10-19T07:29:33;8.70;99.90
54178;DHT22;40085;53.004;6.770;2023-10-19T07:32:02;8.90;99.90
54178;DHT22;40085;53.004;6.770;2023-10-19T07:34:31;8.70;99.90
54178;DHT22;40085;53.004;6.770;2023-10-19T07:36:58;8.70;99.90
54178;DHT22;40085;53.004;6.770;2023-10-19T07:39:26;8.70;99.90
54178;DHT22;40085;53.004;6.770;2023-10-19T07:41:57;8.70;99.90
54178;DHT22;40085;53.004;6.770;2023-10-19T07:44:23;8.70;99.90
54178;DHT22;40085;53.004;6.770;2023-10-19T07:46:49;8.70;99.90
54178;DHT22;40085;53.004;6.770;2023-10-19T07:49:14;8.80;99.90
54178;DHT22;40085;53.004;6.770;2023-10-19T07:51:47;8.80;99.90
54178;DHT22;40085;53.004;6.770;2023-10-19T07:54:13;8.80;99.90
54178;DHT22;40085;53.004;6.770;2023-10-19T07:56:39;8.90;99.90
54178;DHT22;40085;53.004;6.770;2023-10-19T07:59:04;9.10;99.90
54178;DHT22;40085;53.004;6.770;2023-10-19T08:01:32;8.80;99.90
54178;DHT22;40085;53.004;6.770;2023-10-19T08:03:58;8.90;99.90
54178;DHT22;40085;53.004;6.770;2023-10-19T08:06:24;8.90;99.90
54178;DHT22;40085;53.004;6.770;2023-10-19T08:08:51;8.90;99.90
54178;DHT22;40085;53.004;6.770;2023-10-19T08:11:18;8.90;99.90
54178;DHT22;40085;53.004;6.770;2023-10-19T08:13:44;9.40;99.90
54178;DHT22;40085;53.004;6.770;2023-10-19T08:16:09;8.90;99.90
54178;DHT22;40085;53.004;6.770;2023-10-19T08:18:37;8.90;99.90
54178;DHT22;40085;53.004;6.770;2023-10-19T08:21:03;8.90;99.90
54178;DHT22;40085;53.004;6.770;2023-10-19T08:23:29;9.00;99.90
54178;DHT22;40085;53.004;6.770;2023-10-19T08:28:24;9.00;99.90
54178;DHT22;40085;53.004;6.770;2023-10-19T08:30:49;9.00;99.90
54178;DHT22;40085;53.004;6.770;2023-10-19T08:33:27;9.00;99.90
54178;DHT22;40085;53.004;6.770;2023-10-19T08:35:53;9.10;99.90
54178;DHT22;40085;53.004;6.770;2023-10-19T08:38:20;9.10;99.90
54178;DHT22;40085;53.004;6.770;2023-10-19T08:40:47;9.10;99.90
54178;DHT22;40085;53.004;6.770;2023-10-19T08:43:13;9.10;99.90
54178;DHT22;40085;53.004;6.770;2023-10-19T08:45:44;9.20;99.90
54178;DHT22;40085;53.004;6.770;2023-10-19T08:48:10;9.20;99.90
54178;DHT22;40085;53.004;6.770;2023-10-19T08:50:37;9.20;99.90
54178;DHT22;40085;53.004;6.770;2023-10-19T08:53:08;9.20;99.90
54178;DHT22;40085;53.004;6.770;2023-10-19T08:55:34;9.20;99.90
54178;DHT22;40085;53.004;6.770;2023-10-19T08:58:00;9.20;99.90
54178;DHT22;40085;53.004;6.770;2023-10-19T09:00:27;9.30;99.90
54178;DHT22;40085;53.004;6.770;2023-10-19T09:02:53;9.20;99.90
54178;DHT22;40085;53.004;6.770;2023-10-19T09:05:19;9.30;99.90
54178;DHT22;40085;53.004;6.770;2023-10-19T09:07:48;9.30;99.90
54178;DHT22;40085;53.004;6.770;2023-10-19T09:10:20;9.30;99.90
54178;DHT22;40085;53.004;6.770;2023-10-19T09:12:59;9.40;99.90
54178;DHT22;40085;53.004;6.770;2023-10-19T09:15:25;9.40;99.90
54178;DHT22;40085;53.004;6.770;2023-10-19T09:17:52;9.40;99.90
54178;DHT22;40085;53.004;6.770;2023-10-19T09:20:20;9.40;99.90
54178;DHT22;40085;53.004;6.770;2023-10-19T09:22:56;9.40;99.90
54178;DHT22;40085;53.004;6.770;2023-10-19T09:25:23;9.40;99.90
54178;DHT22;40085;53.004;6.770;2023-10-19T09:27:49;9.40;99.90
54178;DHT22;40085;53.004;6.770;2023-10-19T09:30:19;9.40;99.90
54178;DHT22;40085;53.004;6.770;2023-10-19T09:32:48;9.40;99.90
54178;DHT22;40085;53.004;6.770;2023-10-19T09:35:15;9.50;99.90
54178;DHT22;40085;53.004;6.770;2023-10-19T09:37:44;9.50;99.90
54178;DHT22;40085;53.004;6.770;2023-10-19T09:40:13;9.50;99.90
54178;DHT22;40085;53.004;6.770;2023-10-19T09:42:40;9.50;99.90
54178;DHT22;40085;53.004;6.770;2023-10-19T09:45:12;9.50;99.90
54178;DHT22;40085;53.004;6.770;2023-10-19T09:47:41;9.50;99.90
54178;DHT22;40085;53.004;6.770;2023-10-19T09:50:10;9.50;99.90
54178;DHT22;40085;53.004;6.770;2023-10-19T09:52:38;9.50;99.90
54178;DHT22;40085;53.004;6.770;2023-10-19T09:57:48;9.60;99.90
54178;DHT22;40085;53.004;6.770;2023-10-19T10:00:17;9.60;99.90
54178;DHT22;40085;53.004;6.770;2023-10-19T10:02:48;9.60;99.90
54178;DHT22;40085;53.004;6.770;2023-10-19T10:10:48;9.60;99.90
54178;DHT22;40085;53.004;6.770;2023-10-19T10:16:00;9.70;99.90
54178;DHT22;40085;53.004;6.770;2023-10-19T10:18:31;9.70;99.90
54178;DHT22;40085;53.004;6.770;2023-10-19T10:21:14;9.80;99.90
54178;DHT22;40085;53.004;6.770;2023-10-19T10:23:45;9.90;99.90
54178;DHT22;40085;53.004;6.770;2023-10-19T10:26:13;9.90;99.90
54178;DHT22;40085;53.004;6.770;2023-10-19T10:28:40;9.90;99.90
54178;DHT22;40085;53.004;6.770;2023-10-19T10:31:10;10.50;99.90
54178;DHT22;40085;53.004;6.770;2023-10-19T10:33:47;10.00;99.90
54178;DHT22;40085;53.004;6.770;2023-10-19T10:36:14;10.10;99.90
54178;DHT22;40085;53.004;6.770;2023-10-19T10:38:41;10.10;99.90
54178;DHT22;40085;53.004;6.770;2023-10-19T10:41:07;10.10;99.90
54178;DHT22;40085;53.004;6.770;2023-10-19T10:43:55;10.30;99.90
54178;DHT22;40085;53.004;6.770;2023-10-19T10:46:22;10.30;99.90
54178;DHT22;40085;53.004;6.770;2023-10-19T10:48:48;10.30;99.90
54178;DHT22;40085;53.004;6.770;2023-10-19T10:51:18;10.30;99.90
54178;DHT22;40085;53.004;6.770;2023-10-19T10:53:47;10.40;99.90
54178;DHT22;40085;53.004;6.770;2023-10-19T10:56:12;10.10;99.90
54178;DHT22;40085;53.004;6.770;2023-10-19T10:58:38;10.60;99.90
54178;DHT22;40085;53.004;6.770;2023-10-19T11:01:05;10.90;99.90
54178;DHT22;40085;53.004;6.770;2023-10-19T11:03:31;10.60;99.90
54178;DHT22;40085;53.004;6.770;2023-10-19T11:06:05;10.80;99.90
54178;DHT22;40085;53.004;6.770;2023-10-19T11:08:33;10.60;99.90
54178;DHT22;40085;53.004;6.770;2023-10-19T11:11:08;10.60;99.90
54178;DHT22;40085;53.004;6.770;2023-10-19T11:13:37;11.40;99.90
54178;DHT22;40085;53.004;6.770;2023-10-19T11:16:05;10.60;99.90
54178;DHT22;40085;53.004;6.770;2023-10-19T11:18:35;10.60;99.90
54178;DHT22;40085;53.004;6.770;2023-10-19T11:21:06;10.60;99.90
54178;DHT22;40085;53.004;6.770;2023-10-19T11:23:46;10.60;99.90
54178;DHT22;40085;53.004;6.770;2023-10-19T11:26:13;10.60;99.90
54178;DHT22;40085;53.004;6.770;2023-10-19T11:28:40;10.60;99.90
54178;DHT22;40085;53.004;6.770;2023-10-19T11:31:19;10.60;99.90
54178;DHT22;40085;53.004;6.770;2023-10-19T11:33:46;10.60;99.90
54178;DHT22;40085;53.004;6.770;2023-10-19T11:36:14;10.50;99.90
54178;DHT22;40085;53.004;6.770;2023-10-19T11:38:44;10.50;99.90
54178;DHT22;40085;53.004;6.770;2023-10-19T11:41:12;10.50;99.90
54178;DHT22;40085;53.004;6.770;2023-10-19T11:43:41;10.50;99.90
54178;DHT22;40085;53.004;6.770;2023-10-19T11:46:08;10.50;99.90
54178;DHT22;40085;53.004;6.770;2023-10-19T11:48:35;10.50;99.90
54178;DHT22;40085;53.004;6.770;2023-10-19T11:51:05;10.60;99.90
54178;DHT22;40085;53.004;6.770;2023-10-19T11:53:32;10.60;99.90
54178;DHT22;40085;53.004;6.770;2023-10-19T11:56:07;10.70;99.90
54178;DHT22;40085;53.004;6.770;2023-10-19T11:58:33;10.70;99.90
54178;DHT22;40085;53.004;6.770;2023-10-19T12:01:10;10.90;99.90
54178;DHT22;40085;53.004;6.770;2023-10-19T12:03:39;11.20;99.90
54178;DHT22;40085;53.004;6.770;2023-10-19T15:15:30;9.90;99.90
54178;DHT22;40085;53.004;6.770;2023-10-19T15:17:57;9.90;99.90
54178;DHT22;40085;53.004;6.770;2023-10-19T15:20:28;9.90;99.90
54178;DHT22;40085;53.004;6.770;2023-10-19T15:22:54;9.90;99.90
54178;DHT22;40085;53.004;6.770;2023-10-19T15:25:20;9.90;99.90
54178;DHT22;40085;53.004;6.770;2023-10-19T15:27:47;9.90;99.90
54178;DHT22;40085;53.004;6.770;2023-10-19T15:30:16;9.90;99.90
54178;DHT22;40085;53.004;6.770;2023-10-19T15:32:44;9.80;99.90
54178;DHT22;40085;53.004;6.770;2023-10-19T15:35:10;9.90;99.90
54178;DHT22;40085;53.004;6.770;2023-10-19T15:37:38;9.80;99.90
54178;DHT22;40085;53.004;6.770;2023-10-19T15:40:04;9.80;99.90
54178;DHT22;40085;53.004;6.770;2023-10-19T15:42:30;9.80;99.90
54178;DHT22;40085;53.004;6.770;2023-10-19T15:44:55;9.80;99.90
54178;DHT22;40085;53.004;6.770;2023-10-19T15:47:21;9.80;99.90
54178;DHT22;40085;53.004;6.770;2023-10-19T15:49:50;9.80;99.90
54178;DHT22;40085;53.004;6.770;2023-10-19T15:52:21;9.80;99.90
54178;DHT22;40085;53.004;6.770;2023-10-19T15:54:47;9.70;99.90
54178;DHT22;40085;53.004;6.770;2023-10-19T15:57:13;9.70;99.90
54178;DHT22;40085;53.004;6.770;2023-10-19T15:59:40;9.70;99.90
54178;DHT22;40085;53.004;6.770;2023-10-19T16:02:07;9.70;99.90
54178;DHT22;40085;53.004;6.770;2023-10-19T16:04:32;9.70;99.90
54178;DHT22;40085;53.004;6.770;2023-10-19T16:06:58;9.60;99.90
54178;DHT22;40085;53.004;6.770;2023-10-19T16:09:24;9.70;99.90
54178;DHT22;40085;53.004;6.770;2023-10-19T16:11:51;9.60;99.90
54178;DHT22;40085;53.004;6.770;2023-10-19T16:14:17;9.60;99.90
54178;DHT22;40085;53.004;6.770;2023-10-19T16:16:46;9.60;99.90
54178;DHT22;40085;53.004;6.770;2023-10-19T16:19:15;9.60;99.90
54178;DHT22;40085;53.004;6.770;2023-10-19T16:21:41;9.60;99.90
54178;DHT22;40085;53.004;6.770;2023-10-19T16:24:11;9.60;99.90
54178;DHT22;40085;53.004;6.770;2023-10-19T16:26:38;9.60;99.90
54178;DHT22;40085;53.004;6.770;2023-10-19T16:29:05;9.60;99.90
54178;DHT22;40085;53.004;6.770;2023-10-19T16:31:34;9.60;99.90
54178;DHT22;40085;53.004;6.770;2023-10-19T16:34:00;9.60;99.90
54178;DHT22;40085;53.004;6.770;2023-10-19T16:36:25;9.50;99.90
54178;DHT22;40085;53.004;6.770;2023-10-19T16:38:51;9.50;99.90
54178;DHT22;40085;53.004;6.770;2023-10-19T16:41:17;9.60;99.90
54178;DHT22;40085;53.004;6.770;2023-10-19T16:43:43;9.60;99.90
54178;DHT22;40085;53.004;6.770;2023-10-19T16:46:12;9.50;99.90
54178;DHT22;40085;53.004;6.770;2023-10-19T16:48:38;9.50;99.90
54178;DHT22;40085;53.004;6.770;2023-10-19T16:51:04;9.50;99.90
54178;DHT22;40085;53.004;6.770;2023-10-19T16:53:30;9.50;99.90
54178;DHT22;40085;53.004;6.770;2023-10-19T16:56:03;9.50;99.90
54178;DHT22;40085;53.004;6.770;2023-10-19T16:58:30;9.50;99.90
54178;DHT22;40085;53.004;6.770;2023-10-19T17:00:55;9.50;99.90
54178;DHT22;40085;53.004;6.770;2023-10-19T17:03:22;9.50;99.90
54178;DHT22;40085;53.004;6.770;2023-10-19T17:05:48;9.50;99.90
54178;DHT22;40085;53.004;6.770;2023-10-19T17:08:14;9.40;99.90
54178;DHT22;40085;53.004;6.770;2023-10-19T17:10:39;9.40;99.90
54178;DHT22;40085;53.004;6.770;2023-10-19T17:13:05;9.40;99.90
54178;DHT22;40085;53.004;6.770;2023-10-19T17:15:31;9.40;99.90
54178;DHT22;40085;53.004;6.770;2023-10-19T17:17:59;9.40;99.90
54178;DHT22;40085;53.004;6.770;2023-10-19T17:20:25;9.40;99.90
54178;DHT22;40085;53.004;6.770;2023-10-19T17:22:53;9.40;99.90
54178;DHT22;40085;53.004;6.770;2023-10-19T17:25:19;9.50;99.90
54178;DHT22;40085;53.004;6.770;2023-10-19T17:27:45;9.50;99.90
54178;DHT22;40085;53.004;6.770;2023-10-19T17:30:12;9.40;99.90
54178;DHT22;40085;53.004;6.770;2023-10-19T17:32:40;9.40;99.90
54178;DHT22;40085;53.004;6.770;2023-10-19T17:35:06;9.30;99.90
54178;DHT22;40085;53.004;6.770;2023-10-19T17:37:33;9.30;99.90
54178;DHT22;40085;53.004;6.770;2023-10-19T17:39:59;9.30;99.90
54178;DHT22;40085;53.004;6.770;2023-10-19T17:42:24;9.30;99.90
54178;DHT22;40085;53.004;6.770;2023-10-19T17:44:50;9.30;99.90
54178;DHT22;40085;53.004;6.770;2023-10-19T17:47:15;9.30;99.90
54178;DHT22;40085;53.004;6.770;2023-10-19T17:49:42;9.30;99.90
54178;DHT22;40085;53.004;6.770;2023-10-19T17:52:08;9.30;99.90
54178;DHT22;40085;53.004;6.770;2023-10-19T17:54:34;9.20;99.90
54178;DHT22;40085;53.004;6.770;2023-10-19T17:57:00;9.30;99.90
54178;DHT22;40085;53.004;6.770;2023-10-19T17:59:25;9.30;99.90
54178;DHT22;40085;53.004;6.770;2023-10-19T18:01:51;9.30;99.90
54178;DHT22;40085;53.004;6.770;2023-10-19T18:04:16;9.20;99.90
54178;DHT22;40085;53.004;6.770;2023-10-19T18:06:43;9.20;99.90
54178;DHT22;40085;53.004;6.770;2023-10-19T18:09:10;9.20;99.90
54178;DHT22;40085;53.004;6.770;2023-10-19T18:11:38;9.40;99.90
54178;DHT22;40085;53.004;6.770;2023-10-19T18:14:04;9.20;99.90
54178;DHT22;40085;53.004;6.770;2023-10-19T18:16:29;9.20;99.90
54178;DHT22;40085;53.004;6.770;2023-10-19T18:18:56;9.20;99.90
54178;DHT22;40085;53.004;6.770;2023-10-19T18:21:23;9.10;99.90
54178;DHT22;40085;53.004;6.770;2023-10-19T18:23:48;9.20;99.90
54178;DHT22;40085;53.004;6.770;2023-10-19T18:26:17;9.60;99.90
54178;DHT22;40085;53.004;6.770;2023-10-19T18:28:43;9.10;99.90
54178;DHT22;40085;53.004;6.770;2023-10-19T18:31:09;9.10;99.90
54178;DHT22;40085;53.004;6.770;2023-10-19T18:33:38;9.10;99.90
54178;DHT22;40085;53.004;6.770;2023-10-19T18:36:04;9.10;99.90
54178;DHT22;40085;53.004;6.770;2023-10-19T18:38:33;9.10;99.90
54178;DHT22;40085;53.004;6.770;2023-10-19T18:41:01;9.10;99.90
54178;DHT22;40085;53.004;6.770;2023-10-19T18:43:28;9.10;99.90
54178;DHT22;40085;53.004;6.770;2023-10-19T18:45:57;9.00;99.90
54178;DHT22;40085;53.004;6.770;2023-10-19T18:48:23;9.10;99.90
54178;DHT22;40085;53.004;6.770;2023-10-19T18:51:05;9.00;99.90
54178;DHT22;40085;53.004;6.770;2023-10-19T18:53:33;9.00;99.90
54178;DHT22;40085;53.004;6.770;2023-10-19T18:56:02;9.00;99.90
54178;DHT22;40085;53.004;6.770;2023-10-19T18:58:29;9.00;99.90
54178;DHT22;40085;53.004;6.770;2023-10-19T19:01:02;9.00;99.90
54178;DHT22;40085;53.004;6.770;2023-10-19T19:03:29;9.00;99.90
54178;DHT22;40085;53.004;6.770;2023-10-19T19:05:56;8.90;99.90
54178;DHT22;40085;53.004;6.770;2023-10-19T19:08:29;8.90;99.90
54178;DHT22;40085;53.004;6.770;2023-10-19T19:10:57;8.90;99.90
54178;DHT22;40085;53.004;6.770;2023-10-19T19:13:24;8.90;99.90
54178;DHT22;40085;53.004;6.770;2023-10-19T19:15:51;8.90;99.90
54178;DHT22;40085;53.004;6.770;2023-10-19T19:18:18;8.90;99.90